sensor_id;sensor_type;location;lat;lon;timestamp;P1;durP1;ratioP1;P2;durP2;ratioP2
48975;SDS011;34791;52.752;8.346;2023-03-14T00:02:00;11.13;;;3.43;;
48975;SDS011;34791;52.752;8.346;2023-03-14T00:04:25;12.60;;;3.63;;
48975;SDS011;34791;52.752;8.346;2023-03-14T00:06:51;11.63;;;3.40;;
48975;SDS011;34791;52.752;8.346;2023-03-14T00:09:16;10.47;;;3.90;;
48975;SDS011;34791;52.752;8.346;2023-03-14T00:11:42;10.50;;;4.30;;
48975;SDS011;34791;52.752;8.346;2023-03-14T00:14:08;14.13;;;4.00;;
48975;SDS011;34791;52.752;8.346;2023-03-14T00:16:33;12.07;;;4.00;;
48975;SDS011;34791;52.752;8.346;2023-03-14T00:18:59;11.27;;;3.97;;
48975;SDS011;34791;52.752;8.346;2023-03-14T00:21:24;13.40;;;4.00;;
48975;SDS011;34791;52.752;8.346;2023-03-14T00:23:50;13.33;;;4.37;;
48975;SDS011;34791;52.752;8.346;2023-03-14T00:26:17;11.20;;;4.33;;
48975;SDS011;34791;52.752;8.346;2023-03-14T00:28:44;12.53;;;4.17;;
48975;SDS011;34791;52.752;8.346;2023-03-14T00:31:11;10.20;;;4.83;;
48975;SDS011;34791;52.752;8.346;2023-03-14T00:33:39;12.90;;;4.60;;
48975;SDS011;34791;52.752;8.346;2023-03-14T00:36:05;11.97;;;4.30;;
48975;SDS011;34791;52.752;8.346;2023-03-14T00:38:34;11.03;;;4.40;;
48975;SDS011;34791;52.752;8.346;2023-03-14T00:41:03;11.80;;;4.00;;
48975;SDS011;34791;52.752;8.346;2023-03-14T00:43:29;11.37;;;3.80;;
48975;SDS011;34791;52.752;8.346;2023-03-14T00:45:54;9.53;;;3.67;;
48975;SDS011;34791;52.752;8.346;2023-03-14T00:48:20;9.53;;;3.47;;
48975;SDS011;34791;52.752;8.346;2023-03-14T00:50:46;9.80;;;3.40;;
48975;SDS011;34791;52.752;8.346;2023-03-14T00:53:12;7.17;;;3.70;;
48975;SDS011;34791;52.752;8.346;2023-03-14T00:55:38;10.00;;;4.00;;
48975;SDS011;34791;52.752;8.346;2023-03-14T00:58:04;13.43;;;3.90;;
48975;SDS011;34791;52.752;8.346;2023-03-14T01:00:30;9.63;;;3.60;;
48975;SDS011;34791;52.752;8.346;2023-03-14T01:02:56;11.37;;;3.63;;
48975;SDS011;34791;52.752;8.346;2023-03-14T01:05:21;9.57;;;4.10;;
48975;SDS011;34791;52.752;8.346;2023-03-14T01:07:48;14.20;;;4.87;;
48975;SDS011;34791;52.752;8.346;2023-03-14T01:10:13;10.53;;;3.50;;
48975;SDS011;34791;52.752;8.346;2023-03-14T01:12:39;12.70;;;3.83;;
48975;SDS011;34791;52.752;8.346;2023-03-14T01:15:05;11.43;;;4.27;;
48975;SDS011;34791;52.752;8.346;2023-03-14T01:17:30;10.77;;;4.47;;
48975;SDS011;34791;52.752;8.346;2023-03-14T01:19:56;14.87;;;4.43;;
48975;SDS011;34791;52.752;8.346;2023-03-14T01:22:21;11.10;;;4.57;;
48975;SDS011;34791;52.752;8.346;2023-03-14T01:24:47;13.20;;;4.50;;
48975;SDS011;34791;52.752;8.346;2023-03-14T01:27:12;10.87;;;4.47;;
48975;SDS011;34791;52.752;8.346;2023-03-14T01:29:38;10.57;;;4.50;;
48975;SDS011;34791;52.752;8.346;2023-03-14T01:32:03;13.33;;;5.20;;
48975;SDS011;34791;52.752;8.346;2023-03-14T01:34:29;12.67;;;4.93;;
48975;SDS011;34791;52.752;8.346;2023-03-14T01:36:54;10.70;;;4.80;;
48975;SDS011;34791;52.752;8.346;2023-03-14T01:39:20;9.53;;;4.03;;
48975;SDS011;34791;52.752;8.346;2023-03-14T01:41:45;9.43;;;4.30;;
48975;SDS011;34791;52.752;8.346;2023-03-14T01:44:11;11.87;;;4.07;;
48975;SDS011;34791;52.752;8.346;2023-03-14T01:46:38;10.60;;;4.43;;
48975;SDS011;34791;52.752;8.346;2023-03-14T01:49:09;13.83;;;5.13;;
48975;SDS011;34791;52.752;8.346;2023-03-14T01:51:44;11.67;;;4.70;;
48975;SDS011;34791;52.752;8.346;2023-03-14T01:54:31;12.93;;;4.72;;
48975;SDS011;34791;52.752;8.346;2023-03-14T01:59:36;10.20;;;3.70;;
48975;SDS011;34791;52.752;8.346;2023-03-14T02:02:04;14.67;;;4.00;;
48975;SDS011;34791;52.752;8.346;2023-03-14T02:04:35;13.47;;;3.70;;
48975;SDS011;34791;52.752;8.346;2023-03-14T02:09:47;9.17;;;3.20;;
48975;SDS011;34791;52.752;8.346;2023-03-14T02:12:15;10.50;;;3.57;;
48975;SDS011;34791;52.752;8.346;2023-03-14T02:14:42;11.40;;;2.87;;
48975;SDS011;34791;52.752;8.346;2023-03-14T02:17:12;16.07;;;3.57;;
48975;SDS011;34791;52.752;8.346;2023-03-14T02:22:30;10.67;;;3.17;;
48975;SDS011;34791;52.752;8.346;2023-03-14T02:27:30;11.23;;;2.40;;
48975;SDS011;34791;52.752;8.346;2023-03-14T02:30:00;6.20;;;2.30;;
48975;SDS011;34791;52.752;8.346;2023-03-14T02:32:41;6.87;;;2.17;;
48975;SDS011;34791;52.752;8.346;2023-03-14T02:35:12;7.63;;;2.20;;
48975;SDS011;34791;52.752;8.346;2023-03-14T02:37:44;11.13;;;2.80;;
48975;SDS011;34791;52.752;8.346;2023-03-14T02:40:13;8.63;;;2.60;;
48975;SDS011;34791;52.752;8.346;2023-03-14T02:42:39;10.70;;;2.60;;
48975;SDS011;34791;52.752;8.346;2023-03-14T02:47:33;10.13;;;3.37;;
48975;SDS011;34791;52.752;8.346;2023-03-14T02:50:05;8.17;;;2.50;;
48975;SDS011;34791;52.752;8.346;2023-03-14T02:52:34;9.87;;;2.50;;
48975;SDS011;34791;52.752;8.346;2023-03-14T02:54:59;5.37;;;2.03;;
48975;SDS011;34791;52.752;8.346;2023-03-14T02:57:25;5.77;;;2.20;;
48975;SDS011;34791;52.752;8.346;2023-03-14T02:59:50;10.70;;;2.80;;
48975;SDS011;34791;52.752;8.346;2023-03-14T03:02:16;9.07;;;2.63;;
48975;SDS011;34791;52.752;8.346;2023-03-14T03:04:41;12.57;;;2.87;;
48975;SDS011;34791;52.752;8.346;2023-03-14T03:07:07;10.10;;;2.67;;
48975;SDS011;34791;52.752;8.346;2023-03-14T03:09:33;8.30;;;2.10;;
48975;SDS011;34791;52.752;8.346;2023-03-14T03:11:58;8.17;;;2.67;;
48975;SDS011;34791;52.752;8.346;2023-03-14T03:14:23;4.17;;;1.83;;
48975;SDS011;34791;52.752;8.346;2023-03-14T03:16:49;10.70;;;3.60;;
48975;SDS011;34791;52.752;8.346;2023-03-14T03:19:14;7.27;;;2.67;;
48975;SDS011;34791;52.752;8.346;2023-03-14T03:21:41;7.80;;;2.97;;
48975;SDS011;34791;52.752;8.346;2023-03-14T03:24:06;11.53;;;3.00;;
48975;SDS011;34791;52.752;8.346;2023-03-14T03:26:33;9.93;;;3.20;;
48975;SDS011;34791;52.752;8.346;2023-03-14T03:28:59;10.93;;;3.40;;
48975;SDS011;34791;52.752;8.346;2023-03-14T03:31:25;9.63;;;3.37;;
48975;SDS011;34791;52.752;8.346;2023-03-14T03:33:50;8.30;;;3.13;;
48975;SDS011;34791;52.752;8.346;2023-03-14T03:36:17;14.83;;;4.13;;
48975;SDS011;34791;52.752;8.346;2023-03-14T03:38:46;11.87;;;3.63;;
48975;SDS011;34791;52.752;8.346;2023-03-14T03:41:11;9.37;;;3.80;;
48975;SDS011;34791;52.752;8.346;2023-03-14T03:43:37;13.00;;;4.03;;
48975;SDS011;34791;52.752;8.346;2023-03-14T03:46:03;8.33;;;3.20;;
48975;SDS011;34791;52.752;8.346;2023-03-14T03:48:30;8.53;;;3.30;;
48975;SDS011;34791;52.752;8.346;2023-03-14T03:50:55;9.17;;;3.30;;
48975;SDS011;34791;52.752;8.346;2023-03-14T03:53:21;10.20;;;3.00;;
48975;SDS011;34791;52.752;8.346;2023-03-14T03:55:46;8.90;;;3.47;;
48975;SDS011;34791;52.752;8.346;2023-03-14T03:58:12;10.87;;;2.93;;
48975;SDS011;34791;52.752;8.346;2023-03-14T04:00:37;10.77;;;3.10;;
48975;SDS011;34791;52.752;8.346;2023-03-14T04:03:04;10.70;;;2.50;;
48975;SDS011;34791;52.752;8.346;2023-03-14T04:05:29;6.07;;;2.20;;
48975;SDS011;34791;52.752;8.346;2023-03-14T04:07:55;11.23;;;2.70;;
48975;SDS011;34791;52.752;8.346;2023-03-14T04:10:20;10.17;;;2.53;;
48975;SDS011;34791;52.752;8.346;2023-03-14T04:12:46;4.80;;;1.73;;
48975;SDS011;34791;52.752;8.346;2023-03-14T04:15:11;9.10;;;2.00;;
48975;SDS011;34791;52.752;8.346;2023-03-14T04:17:36;4.40;;;1.30;;
48975;SDS011;34791;52.752;8.346;2023-03-14T04:20:02;9.40;;;2.10;;
48975;SDS011;34791;52.752;8.346;2023-03-14T04:22:28;5.20;;;1.70;;
48975;SDS011;34791;52.752;8.346;2023-03-14T04:24:53;5.93;;;2.40;;
48975;SDS011;34791;52.752;8.346;2023-03-14T04:27:19;6.37;;;2.00;;
48975;SDS011;34791;52.752;8.346;2023-03-14T04:29:44;5.80;;;1.77;;
48975;SDS011;34791;52.752;8.346;2023-03-14T04:32:10;7.33;;;1.60;;
48975;SDS011;34791;52.752;8.346;2023-03-14T04:34:35;8.30;;;2.20;;
48975;SDS011;34791;52.752;8.346;2023-03-14T04:37:01;7.90;;;2.40;;
48975;SDS011;34791;52.752;8.346;2023-03-14T04:39:26;8.23;;;2.47;;
48975;SDS011;34791;52.752;8.346;2023-03-14T04:41:52;10.80;;;2.97;;
48975;SDS011;34791;52.752;8.346;2023-03-14T04:44:17;10.37;;;2.10;;
48975;SDS011;34791;52.752;8.346;2023-03-14T04:46:43;6.67;;;2.03;;
48975;SDS011;34791;52.752;8.346;2023-03-14T04:49:08;10.90;;;2.57;;
48975;SDS011;34791;52.752;8.346;2023-03-14T04:51:34;7.77;;;2.20;;
48975;SDS011;34791;52.752;8.346;2023-03-14T04:53:59;5.77;;;2.00;;
48975;SDS011;34791;52.752;8.346;2023-03-14T04:56:24;7.07;;;2.23;;
48975;SDS011;34791;52.752;8.346;2023-03-14T04:58:50;8.13;;;2.13;;
48975;SDS011;34791;52.752;8.346;2023-03-14T05:01:15;5.57;;;1.63;;
48975;SDS011;34791;52.752;8.346;2023-03-14T05:03:41;6.47;;;1.50;;
48975;SDS011;34791;52.752;8.346;2023-03-14T05:06:06;6.77;;;1.50;;
48975;SDS011;34791;52.752;8.346;2023-03-14T05:08:32;6.93;;;1.80;;
48975;SDS011;34791;52.752;8.346;2023-03-14T05:10:58;6.70;;;1.67;;
48975;SDS011;34791;52.752;8.346;2023-03-14T05:13:23;7.97;;;1.80;;
48975;SDS011;34791;52.752;8.346;2023-03-14T05:15:49;7.30;;;1.77;;
48975;SDS011;34791;52.752;8.346;2023-03-14T05:18:20;4.10;;;1.52;;
48975;SDS011;34791;52.752;8.346;2023-03-14T05:20:45;5.00;;;1.37;;
48975;SDS011;34791;52.752;8.346;2023-03-14T05:23:11;4.33;;;1.73;;
48975;SDS011;34791;52.752;8.346;2023-03-14T05:25:36;8.93;;;1.60;;
48975;SDS011;34791;52.752;8.346;2023-03-14T05:28:02;6.80;;;1.70;;
48975;SDS011;34791;52.752;8.346;2023-03-14T05:30:27;5.43;;;1.80;;
48975;SDS011;34791;52.752;8.346;2023-03-14T05:32:53;8.07;;;2.10;;
48975;SDS011;34791;52.752;8.346;2023-03-14T05:35:19;4.27;;;1.70;;
48975;SDS011;34791;52.752;8.346;2023-03-14T05:37:44;7.50;;;2.20;;
48975;SDS011;34791;52.752;8.346;2023-03-14T05:40:10;4.97;;;1.50;;
48975;SDS011;34791;52.752;8.346;2023-03-14T05:42:35;5.73;;;1.50;;
48975;SDS011;34791;52.752;8.346;2023-03-14T05:45:01;3.20;;;1.27;;
48975;SDS011;34791;52.752;8.346;2023-03-14T05:47:26;4.77;;;1.33;;
48975;SDS011;34791;52.752;8.346;2023-03-14T05:49:52;5.07;;;1.40;;
48975;SDS011;34791;52.752;8.346;2023-03-14T05:52:17;5.40;;;1.67;;
48975;SDS011;34791;52.752;8.346;2023-03-14T05:54:42;7.33;;;1.60;;
48975;SDS011;34791;52.752;8.346;2023-03-14T05:57:08;4.37;;;1.53;;
48975;SDS011;34791;52.752;8.346;2023-03-14T05:59:33;5.00;;;1.43;;
48975;SDS011;34791;52.752;8.346;2023-03-14T06:01:59;2.93;;;1.40;;
48975;SDS011;34791;52.752;8.346;2023-03-14T06:04:24;6.80;;;1.90;;
48975;SDS011;34791;52.752;8.346;2023-03-14T06:06:50;6.00;;;1.77;;
48975;SDS011;34791;52.752;8.346;2023-03-14T06:09:15;8.63;;;2.03;;
48975;SDS011;34791;52.752;8.346;2023-03-14T06:11:41;4.63;;;1.70;;
48975;SDS011;34791;52.752;8.346;2023-03-14T06:14:06;7.43;;;2.10;;
48975;SDS011;34791;52.752;8.346;2023-03-14T06:16:32;10.93;;;3.10;;
48975;SDS011;34791;52.752;8.346;2023-03-14T06:18:57;7.93;;;1.93;;
48975;SDS011;34791;52.752;8.346;2023-03-14T06:21:22;6.23;;;2.10;;
48975;SDS011;34791;52.752;8.346;2023-03-14T06:23:48;7.50;;;2.10;;
48975;SDS011;34791;52.752;8.346;2023-03-14T06:26:14;7.80;;;2.33;;
48975;SDS011;34791;52.752;8.346;2023-03-14T06:28:39;9.03;;;2.77;;
48975;SDS011;34791;52.752;8.346;2023-03-14T06:31:05;7.43;;;2.03;;
48975;SDS011;34791;52.752;8.346;2023-03-14T06:33:31;8.90;;;2.40;;
48975;SDS011;34791;52.752;8.346;2023-03-14T06:35:56;8.50;;;2.20;;
48975;SDS011;34791;52.752;8.346;2023-03-14T06:38:22;8.50;;;1.83;;
48975;SDS011;34791;52.752;8.346;2023-03-14T06:40:47;14.07;;;2.37;;
48975;SDS011;34791;52.752;8.346;2023-03-14T06:43:12;6.00;;;1.50;;
48975;SDS011;34791;52.752;8.346;2023-03-14T06:45:38;13.27;;;2.40;;
48975;SDS011;34791;52.752;8.346;2023-03-14T06:48:03;7.50;;;1.80;;
48975;SDS011;34791;52.752;8.346;2023-03-14T06:50:29;9.60;;;2.70;;
48975;SDS011;34791;52.752;8.346;2023-03-14T06:52:54;8.97;;;2.00;;
48975;SDS011;34791;52.752;8.346;2023-03-14T06:55:19;9.57;;;2.23;;
48975;SDS011;34791;52.752;8.346;2023-03-14T06:57:45;10.73;;;2.30;;
48975;SDS011;34791;52.752;8.346;2023-03-14T07:00:11;7.63;;;2.33;;
48975;SDS011;34791;52.752;8.346;2023-03-14T07:02:37;8.77;;;2.23;;
48975;SDS011;34791;52.752;8.346;2023-03-14T07:05:03;11.23;;;2.67;;
48975;SDS011;34791;52.752;8.346;2023-03-14T07:07:30;9.50;;;2.50;;
48975;SDS011;34791;52.752;8.346;2023-03-14T07:09:55;9.70;;;2.50;;
48975;SDS011;34791;52.752;8.346;2023-03-14T07:12:21;10.33;;;2.17;;
48975;SDS011;34791;52.752;8.346;2023-03-14T07:14:46;8.80;;;2.50;;
48975;SDS011;34791;52.752;8.346;2023-03-14T07:17:12;7.47;;;2.03;;
48975;SDS011;34791;52.752;8.346;2023-03-14T07:19:37;11.73;;;2.50;;
48975;SDS011;34791;52.752;8.346;2023-03-14T07:22:06;8.13;;;2.60;;
48975;SDS011;34791;52.752;8.346;2023-03-14T07:24:31;10.13;;;2.20;;
48975;SDS011;34791;52.752;8.346;2023-03-14T07:26:57;9.70;;;2.57;;
48975;SDS011;34791;52.752;8.346;2023-03-14T07:29:22;6.90;;;1.70;;
48975;SDS011;34791;52.752;8.346;2023-03-14T07:31:48;14.57;;;2.50;;
48975;SDS011;34791;52.752;8.346;2023-03-14T07:34:13;8.77;;;2.07;;
48975;SDS011;34791;52.752;8.346;2023-03-14T07:36:39;7.97;;;2.30;;
48975;SDS011;34791;52.752;8.346;2023-03-14T07:39:04;10.23;;;2.47;;
48975;SDS011;34791;52.752;8.346;2023-03-14T07:41:30;11.73;;;2.13;;
48975;SDS011;34791;52.752;8.346;2023-03-14T07:43:56;6.23;;;2.30;;
48975;SDS011;34791;52.752;8.346;2023-03-14T07:46:22;8.47;;;2.30;;
48975;SDS011;34791;52.752;8.346;2023-03-14T07:48:47;10.00;;;2.60;;
48975;SDS011;34791;52.752;8.346;2023-03-14T07:51:12;6.10;;;1.70;;
48975;SDS011;34791;52.752;8.346;2023-03-14T07:53:38;8.80;;;2.33;;
48975;SDS011;34791;52.752;8.346;2023-03-14T07:56:04;5.87;;;1.87;;
48975;SDS011;34791;52.752;8.346;2023-03-14T07:58:30;6.60;;;2.17;;
48975;SDS011;34791;52.752;8.346;2023-03-14T08:00:55;6.33;;;2.07;;
48975;SDS011;34791;52.752;8.346;2023-03-14T08:03:23;7.00;;;2.03;;
48975;SDS011;34791;52.752;8.346;2023-03-14T08:05:49;4.37;;;1.70;;
48975;SDS011;34791;52.752;8.346;2023-03-14T08:08:15;7.00;;;1.63;;
48975;SDS011;34791;52.752;8.346;2023-03-14T08:10:41;9.73;;;1.80;;
48975;SDS011;34791;52.752;8.346;2023-03-14T08:13:06;7.00;;;1.70;;
48975;SDS011;34791;52.752;8.346;2023-03-14T08:15:31;8.00;;;1.50;;
48975;SDS011;34791;52.752;8.346;2023-03-14T08:17:57;3.93;;;1.10;;
48975;SDS011;34791;52.752;8.346;2023-03-14T08:20:24;4.43;;;1.17;;
48975;SDS011;34791;52.752;8.346;2023-03-14T08:22:51;3.93;;;0.80;;
48975;SDS011;34791;52.752;8.346;2023-03-14T08:25:17;5.37;;;1.10;;
48975;SDS011;34791;52.752;8.346;2023-03-14T08:27:42;4.20;;;1.07;;
48975;SDS011;34791;52.752;8.346;2023-03-14T08:30:12;4.60;;;1.20;;
48975;SDS011;34791;52.752;8.346;2023-03-14T08:32:39;3.08;;;1.10;;
48975;SDS011;34791;52.752;8.346;2023-03-14T08:35:05;1.00;;;0.50;;
48975;SDS011;34791;52.752;8.346;2023-03-14T08:37:32;7.77;;;1.40;;
48975;SDS011;34791;52.752;8.346;2023-03-14T08:39:58;3.93;;;1.20;;
48975;SDS011;34791;52.752;8.346;2023-03-14T08:42:23;8.37;;;1.20;;
48975;SDS011;34791;52.752;8.346;2023-03-14T08:44:50;8.10;;;1.10;;
48975;SDS011;34791;52.752;8.346;2023-03-14T08:47:16;3.83;;;0.90;;
48975;SDS011;34791;52.752;8.346;2023-03-14T08:49:41;3.03;;;1.10;;
48975;SDS011;34791;52.752;8.346;2023-03-14T08:52:07;3.63;;;1.00;;
48975;SDS011;34791;52.752;8.346;2023-03-14T08:54:32;2.40;;;1.17;;
48975;SDS011;34791;52.752;8.346;2023-03-14T08:56:58;7.00;;;1.40;;
48975;SDS011;34791;52.752;8.346;2023-03-14T08:59:23;3.70;;;1.00;;
48975;SDS011;34791;52.752;8.346;2023-03-14T09:01:49;2.93;;;1.00;;
48975;SDS011;34791;52.752;8.346;2023-03-14T09:04:14;4.00;;;1.30;;
48975;SDS011;34791;52.752;8.346;2023-03-14T09:06:40;2.67;;;1.00;;
48975;SDS011;34791;52.752;8.346;2023-03-14T09:09:05;4.83;;;1.30;;
48975;SDS011;34791;52.752;8.346;2023-03-14T09:11:31;5.43;;;1.63;;
48975;SDS011;34791;52.752;8.346;2023-03-14T09:13:56;4.37;;;1.40;;
48975;SDS011;34791;52.752;8.346;2023-03-14T09:16:22;4.83;;;1.43;;
48975;SDS011;34791;52.752;8.346;2023-03-14T09:18:47;4.20;;;1.50;;
48975;SDS011;34791;52.752;8.346;2023-03-14T09:21:13;6.17;;;1.67;;
48975;SDS011;34791;52.752;8.346;2023-03-14T09:23:39;4.83;;;1.60;;
48975;SDS011;34791;52.752;8.346;2023-03-14T09:26:05;8.30;;;0.90;;
48975;SDS011;34791;52.752;8.346;2023-03-14T09:28:30;5.43;;;1.00;;
48975;SDS011;34791;52.752;8.346;2023-03-14T09:30:56;3.63;;;0.87;;
48975;SDS011;34791;52.752;8.346;2023-03-14T09:33:22;3.07;;;0.73;;
48975;SDS011;34791;52.752;8.346;2023-03-14T09:35:47;5.47;;;1.00;;
48975;SDS011;34791;52.752;8.346;2023-03-14T09:38:13;4.90;;;1.00;;
48975;SDS011;34791;52.752;8.346;2023-03-14T09:40:38;5.93;;;0.97;;
48975;SDS011;34791;52.752;8.346;2023-03-14T09:43:04;4.33;;;0.90;;
48975;SDS011;34791;52.752;8.346;2023-03-14T09:45:36;8.50;;;0.90;;
48975;SDS011;34791;52.752;8.346;2023-03-14T09:48:05;4.00;;;0.90;;
48975;SDS011;34791;52.752;8.346;2023-03-14T09:53:08;3.97;;;0.80;;
48975;SDS011;34791;52.752;8.346;2023-03-14T09:55:37;3.27;;;0.90;;
48975;SDS011;34791;52.752;8.346;2023-03-14T09:58:05;3.77;;;0.90;;
48975;SDS011;34791;52.752;8.346;2023-03-14T10:00:36;5.70;;;1.00;;
48975;SDS011;34791;52.752;8.346;2023-03-14T10:05:36;1.23;;;0.80;;
48975;SDS011;34791;52.752;8.346;2023-03-14T10:08:02;1.77;;;1.00;;
48975;SDS011;34791;52.752;8.346;2023-03-14T10:10:28;3.47;;;0.80;;
48975;SDS011;34791;52.752;8.346;2023-03-14T10:15:33;1.40;;;0.80;;
48975;SDS011;34791;52.752;8.346;2023-03-14T10:18:00;2.73;;;0.80;;
48975;SDS011;34791;52.752;8.346;2023-03-14T10:22:57;4.13;;;1.40;;
48975;SDS011;34791;52.752;8.346;2023-03-14T10:25:25;2.57;;;1.40;;
48975;SDS011;34791;52.752;8.346;2023-03-14T10:27:59;2.37;;;1.40;;
48975;SDS011;34791;52.752;8.346;2023-03-14T10:30:29;4.53;;;2.10;;
48975;SDS011;34791;52.752;8.346;2023-03-14T10:33:07;2.20;;;1.17;;
48975;SDS011;34791;52.752;8.346;2023-03-14T10:35:34;2.13;;;1.00;;
48975;SDS011;34791;52.752;8.346;2023-03-14T10:38:00;2.47;;;1.10;;
48975;SDS011;34791;52.752;8.346;2023-03-14T10:40:32;3.23;;;1.53;;
48975;SDS011;34791;52.752;8.346;2023-03-14T10:43:03;4.20;;;1.97;;
48975;SDS011;34791;52.752;8.346;2023-03-14T10:45:36;2.67;;;1.50;;
48975;SDS011;34791;52.752;8.346;2023-03-14T10:48:17;4.90;;;1.87;;
48975;SDS011;34791;52.752;8.346;2023-03-14T10:50:49;4.03;;;1.50;;
48975;SDS011;34791;52.752;8.346;2023-03-14T10:53:16;3.23;;;1.60;;
48975;SDS011;34791;52.752;8.346;2023-03-14T10:55:43;5.00;;;1.30;;
48975;SDS011;34791;52.752;8.346;2023-03-14T10:58:19;4.63;;;1.47;;
48975;SDS011;34791;52.752;8.346;2023-03-14T11:00:51;2.70;;;1.00;;
48975;SDS011;34791;52.752;8.346;2023-03-14T11:03:38;4.20;;;1.30;;
48975;SDS011;34791;52.752;8.346;2023-03-14T11:07:09;3.17;;;1.10;;
48975;SDS011;34791;52.752;8.346;2023-03-14T11:09:20;3.40;;;1.33;;
48975;SDS011;34791;52.752;8.346;2023-03-14T11:11:54;6.37;;;1.40;;
48975;SDS011;34791;52.752;8.346;2023-03-14T11:14:30;6.97;;;1.50;;
48975;SDS011;34791;52.752;8.346;2023-03-14T11:17:05;4.27;;;1.50;;
48975;SDS011;34791;52.752;8.346;2023-03-14T11:22:41;6.80;;;1.50;;
48975;SDS011;34791;52.752;8.346;2023-03-14T11:30:21;8.73;;;1.40;;
48975;SDS011;34791;52.752;8.346;2023-03-14T11:33:03;10.47;;;1.30;;
48975;SDS011;34791;52.752;8.346;2023-03-14T11:35:48;4.53;;;1.10;;
48975;SDS011;34791;52.752;8.346;2023-03-14T11:38:48;5.73;;;1.20;;
48975;SDS011;34791;52.752;8.346;2023-03-14T11:41:40;7.05;;;1.55;;
48975;SDS011;34791;52.752;8.346;2023-03-14T11:55:47;7.70;;;1.17;;
48975;SDS011;34791;52.752;8.346;2023-03-14T12:00:44;9.20;;;1.65;;
48975;SDS011;34791;52.752;8.346;2023-03-14T12:08:48;22.47;;;2.40;;
48975;SDS011;34791;52.752;8.346;2023-03-14T12:13:57;17.33;;;2.35;;
48975;SDS011;34791;52.752;8.346;2023-03-14T12:18:48;16.33;;;2.23;;
48975;SDS011;34791;52.752;8.346;2023-03-14T12:21:14;14.40;;;2.13;;
48975;SDS011;34791;52.752;8.346;2023-03-14T12:26:50;8.73;;;1.57;;
48975;SDS011;34791;52.752;8.346;2023-03-14T12:29:24;17.00;;;2.37;;
48975;SDS011;34791;52.752;8.346;2023-03-14T12:34:46;13.70;;;2.10;;
48975;SDS011;34791;52.752;8.346;2023-03-14T12:37:14;19.43;;;2.73;;
48975;SDS011;34791;52.752;8.346;2023-03-14T12:42:37;14.70;;;2.50;;
48975;SDS011;34791;52.752;8.346;2023-03-14T12:45:28;13.60;;;1.85;;
48975;SDS011;34791;52.752;8.346;2023-03-14T12:50:43;16.53;;;1.97;;
48975;SDS011;34791;52.752;8.346;2023-03-14T12:55:41;12.93;;;1.50;;
48975;SDS011;34791;52.752;8.346;2023-03-14T12:58:24;11.17;;;1.50;;
48975;SDS011;34791;52.752;8.346;2023-03-14T13:00:55;14.63;;;1.90;;
48975;SDS011;34791;52.752;8.346;2023-03-14T13:03:26;15.70;;;2.20;;
48975;SDS011;34791;52.752;8.346;2023-03-14T13:06:02;13.70;;;2.10;;
48975;SDS011;34791;52.752;8.346;2023-03-14T13:08:39;10.37;;;1.70;;
48975;SDS011;34791;52.752;8.346;2023-03-14T13:11:19;11.70;;;1.83;;
48975;SDS011;34791;52.752;8.346;2023-03-14T13:13:46;12.70;;;1.73;;
48975;SDS011;34791;52.752;8.346;2023-03-14T13:16:16;13.03;;;1.73;;
48975;SDS011;34791;52.752;8.346;2023-03-14T13:18:50;11.90;;;2.20;;
48975;SDS011;34791;52.752;8.346;2023-03-14T13:21:25;11.90;;;2.08;;
48975;SDS011;34791;52.752;8.346;2023-03-14T13:23:54;9.93;;;1.50;;
48975;SDS011;34791;52.752;8.346;2023-03-14T13:26:19;12.57;;;1.70;;
48975;SDS011;34791;52.752;8.346;2023-03-14T13:28:45;7.40;;;1.20;;
48975;SDS011;34791;52.752;8.346;2023-03-14T13:31:18;10.00;;;1.67;;
48975;SDS011;34791;52.752;8.346;2023-03-14T13:33:47;11.40;;;1.53;;
48975;SDS011;34791;52.752;8.346;2023-03-14T13:36:22;5.73;;;1.53;;
48975;SDS011;34791;52.752;8.346;2023-03-14T13:38:54;3.60;;;0.93;;
48975;SDS011;34791;52.752;8.346;2023-03-14T13:41:24;11.27;;;2.40;;
48975;SDS011;34791;52.752;8.346;2023-03-14T13:43:50;10.00;;;1.07;;
48975;SDS011;34791;52.752;8.346;2023-03-14T13:46:16;7.23;;;1.20;;
48975;SDS011;34791;52.752;8.346;2023-03-14T13:48:47;7.57;;;1.27;;
48975;SDS011;34791;52.752;8.346;2023-03-14T13:51:18;7.83;;;1.40;;
48975;SDS011;34791;52.752;8.346;2023-03-14T13:53:49;6.37;;;1.20;;
48975;SDS011;34791;52.752;8.346;2023-03-14T13:56:20;10.90;;;1.60;;
48975;SDS011;34791;52.752;8.346;2023-03-14T13:58:47;9.37;;;1.50;;
48975;SDS011;34791;52.752;8.346;2023-03-14T14:01:20;9.30;;;1.47;;
48975;SDS011;34791;52.752;8.346;2023-03-14T14:03:49;8.70;;;1.47;;
48975;SDS011;34791;52.752;8.346;2023-03-14T14:08:53;11.63;;;1.60;;
48975;SDS011;34791;52.752;8.346;2023-03-14T14:11:22;9.57;;;1.27;;
48975;SDS011;34791;52.752;8.346;2023-03-14T14:14:18;8.47;;;1.40;;
48975;SDS011;34791;52.752;8.346;2023-03-14T14:16:45;11.60;;;1.63;;
48975;SDS011;34791;52.752;8.346;2023-03-14T14:19:12;9.77;;;1.53;;
48975;SDS011;34791;52.752;8.346;2023-03-14T14:21:39;11.17;;;1.50;;
48975;SDS011;34791;52.752;8.346;2023-03-14T14:24:04;13.43;;;1.70;;
48975;SDS011;34791;52.752;8.346;2023-03-14T14:26:31;12.77;;;1.50;;
48975;SDS011;34791;52.752;8.346;2023-03-14T14:29:03;8.57;;;1.63;;
48975;SDS011;34791;52.752;8.346;2023-03-14T14:31:30;5.40;;;1.23;;
48975;SDS011;34791;52.752;8.346;2023-03-14T14:34:03;11.63;;;2.03;;
48975;SDS011;34791;52.752;8.346;2023-03-14T14:36:47;7.23;;;1.63;;
48975;SDS011;34791;52.752;8.346;2023-03-14T14:39:19;7.70;;;1.53;;
48975;SDS011;34791;52.752;8.346;2023-03-14T14:41:47;7.00;;;1.13;;
48975;SDS011;34791;52.752;8.346;2023-03-14T14:44:17;8.63;;;1.50;;
48975;SDS011;34791;52.752;8.346;2023-03-14T14:46:54;7.73;;;1.10;;
48975;SDS011;34791;52.752;8.346;2023-03-14T14:49:20;5.43;;;1.20;;
48975;SDS011;34791;52.752;8.346;2023-03-14T14:51:49;10.07;;;1.57;;
48975;SDS011;34791;52.752;8.346;2023-03-14T14:54:19;6.50;;;1.30;;
48975;SDS011;34791;52.752;8.346;2023-03-14T14:57:01;5.87;;;1.20;;
48975;SDS011;34791;52.752;8.346;2023-03-14T14:59:28;5.73;;;1.20;;
48975;SDS011;34791;52.752;8.346;2023-03-14T15:02:00;8.90;;;1.60;;
48975;SDS011;34791;52.752;8.346;2023-03-14T15:04:27;7.87;;;1.57;;
48975;SDS011;34791;52.752;8.346;2023-03-14T15:06:55;10.83;;;1.53;;
48975;SDS011;34791;52.752;8.346;2023-03-14T15:09:21;7.97;;;1.40;;
48975;SDS011;34791;52.752;8.346;2023-03-14T15:11:47;8.90;;;1.57;;
48975;SDS011;34791;52.752;8.346;2023-03-14T15:14:13;8.20;;;1.30;;
48975;SDS011;34791;52.752;8.346;2023-03-14T15:16:39;5.87;;;1.27;;
48975;SDS011;34791;52.752;8.346;2023-03-14T15:19:09;8.90;;;1.37;;
48975;SDS011;34791;52.752;8.346;2023-03-14T15:21:38;12.43;;;1.60;;
48975;SDS011;34791;52.752;8.346;2023-03-14T15:24:04;14.30;;;1.90;;
48975;SDS011;34791;52.752;8.346;2023-03-14T15:26:30;9.13;;;1.73;;
48975;SDS011;34791;52.752;8.346;2023-03-14T15:28:56;8.00;;;1.50;;
48975;SDS011;34791;52.752;8.346;2023-03-14T15:31:21;8.53;;;1.40;;
48975;SDS011;34791;52.752;8.346;2023-03-14T15:33:47;6.13;;;1.17;;
48975;SDS011;34791;52.752;8.346;2023-03-14T15:36:16;8.03;;;1.50;;
48975;SDS011;34791;52.752;8.346;2023-03-14T15:38:47;8.90;;;1.50;;
48975;SDS011;34791;52.752;8.346;2023-03-14T15:41:13;11.93;;;1.77;;
48975;SDS011;34791;52.752;8.346;2023-03-14T15:43:40;9.67;;;2.43;;
48975;SDS011;34791;52.752;8.346;2023-03-14T15:46:07;8.87;;;1.40;;
48975;SDS011;34791;52.752;8.346;2023-03-14T15:48:33;7.90;;;1.73;;
48975;SDS011;34791;52.752;8.346;2023-03-14T15:50:59;8.97;;;1.40;;
48975;SDS011;34791;52.752;8.346;2023-03-14T15:53:24;6.97;;;1.27;;
48975;SDS011;34791;52.752;8.346;2023-03-14T15:55:50;5.77;;;1.07;;
48975;SDS011;34791;52.752;8.346;2023-03-14T15:58:16;9.83;;;1.77;;
48975;SDS011;34791;52.752;8.346;2023-03-14T16:00:43;8.50;;;1.30;;